createdAt,value
2017-12-14T00:00:07.960Z,13.10
2017-12-14T00:05:08.737Z,13.47
2017-12-14T00:10:09.530Z,11.90
2017-12-14T00:15:10.318Z,12.47
2017-12-14T00:20:13.104Z,12.53
2017-12-14T00:25:13.829Z,12.60
2017-12-14T00:30:14.634Z,12.33
2017-12-14T00:35:15.468Z,11.17
2017-12-14T00:40:16.255Z,14.37
2017-12-14T00:45:17.034Z,11.27
2017-12-14T00:50:17.822Z,10.80
2017-12-14T00:55:18.625Z,8.50
2017-12-14T01:00:19.462Z,5.23
2017-12-14T01:05:20.292Z,3.13
2017-12-14T01:10:21.102Z,2.20
2017-12-14T01:15:21.888Z,1.50
2017-12-14T01:20:22.918Z,1.40
2017-12-14T01:25:23.722Z,1.67
2017-12-14T01:30:24.532Z,1.37
2017-12-14T01:35:25.317Z,1.40
2017-12-14T01:40:27.138Z,1.30
2017-12-14T01:45:27.978Z,1.30
2017-12-14T01:50:28.837Z,1.40
2017-12-14T01:55:29.640Z,1.17
2017-12-14T02:00:30.477Z,1.10
2017-12-14T02:05:31.273Z,1.00
2017-12-14T02:10:32.087Z,4.70
2017-12-14T02:15:32.878Z,5.87
2017-12-14T02:20:33.654Z,8.03
2017-12-14T02:25:34.451Z,8.60
2017-12-14T02:30:46.393Z,8.43
2017-12-14T02:35:47.210Z,8.97
2017-12-14T02:40:48.043Z,8.40
2017-12-14T02:45:48.829Z,8.43
2017-12-14T02:50:49.629Z,7.23
2017-12-14T02:55:50.418Z,6.60
2017-12-14T03:00:51.235Z,6.37
2017-12-14T03:05:52.053Z,5.70
2017-12-14T03:10:52.837Z,5.90
2017-12-14T03:15:53.598Z,7.23
2017-12-14T03:20:54.373Z,8.70
2017-12-14T03:25:55.150Z,8.47
2017-12-14T03:30:55.948Z,9.80
2017-12-14T03:35:56.741Z,9.03
2017-12-14T03:41:06.015Z,9.10
2017-12-14T03:46:06.788Z,8.97
2017-12-14T03:51:07.580Z,10.20
2017-12-14T03:56:08.368Z,10.03
2017-12-14T04:01:09.188Z,8.20
2017-12-14T04:06:09.964Z,8.47
2017-12-14T04:11:11.777Z,5.30
2017-12-14T04:16:12.607Z,2.17
2017-12-14T04:21:13.422Z,1.50
2017-12-14T04:26:14.237Z,1.53
2017-12-14T04:31:15.082Z,1.37
2017-12-14T04:36:15.953Z,1.50
2017-12-14T04:41:16.754Z,1.10
2017-12-14T04:46:17.570Z,1.07
2017-12-14T04:51:18.388Z,0.90
2017-12-14T04:56:19.191Z,0.77
2017-12-14T05:01:20.358Z,0.70
2017-12-14T05:06:21.165Z,0.73
2017-12-14T05:11:21.974Z,0.80
2017-12-14T05:16:22.782Z,1.17
2017-12-14T05:21:23.568Z,0.97
2017-12-14T05:26:24.394Z,1.00
2017-12-14T05:31:25.222Z,1.20
2017-12-14T05:36:26.034Z,0.87
2017-12-14T05:41:26.845Z,1.17
2017-12-14T05:46:27.671Z,0.80
2017-12-14T05:51:28.450Z,0.77
2017-12-14T05:56:29.230Z,1.00
2017-12-14T06:01:32.001Z,0.70
2017-12-14T06:06:32.802Z,0.70
2017-12-14T06:11:33.605Z,1.13
2017-12-14T06:16:34.410Z,0.80
2017-12-14T06:21:35.239Z,0.97
2017-12-14T06:26:36.041Z,0.70
2017-12-14T06:31:40.320Z,0.40
2017-12-14T06:36:41.145Z,0.50
2017-12-14T06:41:41.941Z,0.60
2017-12-14T06:46:42.753Z,0.60
2017-12-14T06:51:43.554Z,0.47
2017-12-14T06:56:44.354Z,0.60
2017-12-14T07:01:45.142Z,0.50
2017-12-14T07:06:46.924Z,0.60
2017-12-14T07:11:47.709Z,0.57
2017-12-14T07:16:48.508Z,0.80
2017-12-14T07:21:49.314Z,0.50
2017-12-14T07:26:50.121Z,0.60
2017-12-14T07:31:51.271Z,0.80
2017-12-14T07:37:00.265Z,0.80
2017-12-14T07:42:01.073Z,0.80
2017-12-14T07:47:14.417Z,0.90
2017-12-14T07:52:15.221Z,0.60
2017-12-14T07:57:20.015Z,0.80
2017-12-14T08:02:22.808Z,0.80
2017-12-14T08:07:23.622Z,0.70
2017-12-14T08:12:24.422Z,1.70
2017-12-14T08:17:31.733Z,0.80
2017-12-14T08:22:32.500Z,0.90
2017-12-14T08:27:33.294Z,0.70
2017-12-14T08:32:34.083Z,0.90
2017-12-14T08:37:34.844Z,0.80
2017-12-14T08:42:35.629Z,1.10
2017-12-14T08:47:36.430Z,0.67
2017-12-14T08:52:37.213Z,1.73
2017-12-14T08:57:37.990Z,1.40
2017-12-14T09:02:38.771Z,1.77
2017-12-14T09:07:39.537Z,1.00
2017-12-14T09:12:40.302Z,1.00
2017-12-14T09:17:41.114Z,0.60
2017-12-14T09:22:41.890Z,0.70
2017-12-14T09:27:42.673Z,0.67
2017-12-14T09:32:44.440Z,0.63
2017-12-14T09:37:45.229Z,0.87
2017-12-14T09:42:46.007Z,1.17
2017-12-14T10:03:38.531Z,1.77
2017-12-14T10:08:39.320Z,1.03
2017-12-14T10:13:40.131Z,1.07
2017-12-14T10:18:44.705Z,0.87
2017-12-14T10:23:45.505Z,1.20
2017-12-14T10:28:46.294Z,1.00
2017-12-14T10:33:47.078Z,0.80
2017-12-14T10:38:47.849Z,1.50
2017-12-14T10:43:48.654Z,1.70
2017-12-14T10:48:49.426Z,1.10
2017-12-14T10:53:50.230Z,1.00
2017-12-14T10:58:51.017Z,1.10
2017-12-14T11:03:51.872Z,0.97
2017-12-14T11:08:52.806Z,1.27
2017-12-14T11:13:53.605Z,2.20
2017-12-14T11:18:54.857Z,1.47
2017-12-14T11:23:55.662Z,1.00
2017-12-14T11:28:56.463Z,1.40
2017-12-14T11:33:57.249Z,1.20
2017-12-14T11:38:58.077Z,1.83
2017-12-14T11:43:58.889Z,0.97
2017-12-14T11:48:59.676Z,1.30
2017-12-14T11:54:00.478Z,0.83
2017-12-14T11:59:04.648Z,1.50
2017-12-14T12:04:09.369Z,1.43
2017-12-14T12:09:10.220Z,1.10
2017-12-14T12:14:11.036Z,1.20
2017-12-14T12:19:11.854Z,2.20
2017-12-14T12:24:14.641Z,1.17
2017-12-14T12:29:18.471Z,1.50
2017-12-14T12:34:19.271Z,1.30
2017-12-14T12:39:23.256Z,1.30
2017-12-14T12:44:24.026Z,1.80
2017-12-14T12:49:28.097Z,1.00
2017-12-14T12:54:28.889Z,1.37
2017-12-14T12:59:29.728Z,1.00
2017-12-14T13:04:31.359Z,0.97
2017-12-14T13:09:32.162Z,1.00
2017-12-14T13:14:32.956Z,1.10
2017-12-14T13:19:33.756Z,0.90
2017-12-14T13:24:40.301Z,1.00
2017-12-14T13:29:41.105Z,1.00
2017-12-14T13:34:41.877Z,1.20
2017-12-14T13:39:42.657Z,0.90
2017-12-14T13:44:45.429Z,0.80
2017-12-14T13:49:46.220Z,0.70
2017-12-14T13:54:47.000Z,1.00
2017-12-14T13:59:47.824Z,1.30
2017-12-14T14:04:48.612Z,1.00
2017-12-14T14:09:49.424Z,1.93
2017-12-14T14:14:50.209Z,1.60
2017-12-14T14:19:51.042Z,0.80
2017-12-14T14:24:55.148Z,1.07
2017-12-14T14:30:03.043Z,1.33
2017-12-14T14:35:18.811Z,1.47
2017-12-14T14:40:19.632Z,1.30
2017-12-14T14:45:22.454Z,1.20
2017-12-14T14:50:29.922Z,1.03
2017-12-14T14:55:30.722Z,1.30
2017-12-14T15:00:31.531Z,1.77
2017-12-14T15:05:34.357Z,1.73
2017-12-14T15:10:35.140Z,2.20
2017-12-14T15:15:35.970Z,1.50
2017-12-14T15:20:36.764Z,1.30
2017-12-14T15:25:37.573Z,1.00
2017-12-14T15:30:38.371Z,1.10
2017-12-14T15:35:39.154Z,1.50
2017-12-14T15:40:39.951Z,1.10
2017-12-14T15:45:40.793Z,2.20
2017-12-14T15:50:41.595Z,1.17
2017-12-14T15:55:42.398Z,1.70
2017-12-14T16:00:43.176Z,2.57
2017-12-14T16:05:43.992Z,1.80
2017-12-14T16:10:45.232Z,2.10
2017-12-14T16:15:51.697Z,2.10
2017-12-14T16:20:52.474Z,1.83
2017-12-14T16:25:53.573Z,1.60
2017-12-14T16:30:54.375Z,1.47
2017-12-14T16:35:57.188Z,1.67
2017-12-14T16:40:57.985Z,1.80
2017-12-14T16:45:58.778Z,4.10
2017-12-14T16:50:59.558Z,1.47
2017-12-14T16:56:02.378Z,1.53
2017-12-14T17:01:03.177Z,1.87
2017-12-14T17:06:12.829Z,1.57
2017-12-14T17:11:16.818Z,1.63
2017-12-14T17:16:17.627Z,1.47
2017-12-14T17:21:20.442Z,2.03
2017-12-14T17:26:28.930Z,2.20
2017-12-14T17:31:42.895Z,2.87
2017-12-14T17:36:46.974Z,2.90
2017-12-14T17:41:47.777Z,2.90
2017-12-14T17:46:55.409Z,2.60
2017-12-14T17:52:00.054Z,2.20
2017-12-14T17:57:07.169Z,2.10
2017-12-14T18:02:07.937Z,3.07
2017-12-14T18:07:08.756Z,2.70
2017-12-14T18:12:18.087Z,2.60
2017-12-14T18:17:18.877Z,2.83
2017-12-14T18:22:20.045Z,3.43
2017-12-14T18:27:27.968Z,14.30
2017-12-14T18:32:38.763Z,3.40
2017-12-14T18:37:47.649Z,2.80
2017-12-14T18:42:50.436Z,3.40
2017-12-14T18:48:03.109Z,2.90
2017-12-14T18:53:11.179Z,3.40
2017-12-14T19:03:43.359Z,2.67
2017-12-14T19:08:45.141Z,2.63
2017-12-14T19:13:45.945Z,3.33
2017-12-14T19:24:18.351Z,2.63
2017-12-14T19:29:32.596Z,2.87
2017-12-14T19:34:33.385Z,4.10
2017-12-14T19:39:34.241Z,5.20
2017-12-14T19:55:35.558Z,2.77
2017-12-14T20:00:47.194Z,3.43
2017-12-14T20:11:26.558Z,3.30
2017-12-14T20:16:48.910Z,2.60
2017-12-14T20:21:49.781Z,2.83
2017-12-14T20:26:50.617Z,2.83
2017-12-14T20:37:44.788Z,4.03
2017-12-14T20:42:55.782Z,3.73
2017-12-14T20:47:56.577Z,3.60
2017-12-14T20:52:57.403Z,2.73
2017-12-14T21:03:34.039Z,11.53
2017-12-14T21:08:38.255Z,3.53
2017-12-14T21:13:45.724Z,5.40
2017-12-14T21:18:56.743Z,4.73
2017-12-14T21:29:37.668Z,3.27
2017-12-14T21:40:19.209Z,3.20
2017-12-14T21:45:37.337Z,3.90
2017-12-14T21:51:02.310Z,3.40
2017-12-14T21:56:03.128Z,3.63
2017-12-14T22:01:03.928Z,3.30
2017-12-14T22:06:04.715Z,3.10
2017-12-14T22:11:05.509Z,3.07
2017-12-14T22:16:13.875Z,3.03
2017-12-14T22:21:28.300Z,3.73
2017-12-14T22:26:35.015Z,5.03
2017-12-14T22:31:57.905Z,3.27
2017-12-14T22:42:33.124Z,2.80
2017-12-14T22:47:33.988Z,3.50
2017-12-14T22:52:34.807Z,3.17
2017-12-14T22:57:35.720Z,3.13
2017-12-14T23:02:40.100Z,3.00
2017-12-14T23:07:40.833Z,3.40
2017-12-14T23:12:41.662Z,3.80
2017-12-14T23:17:48.118Z,3.30
2017-12-14T23:22:50.902Z,3.07
2017-12-14T23:28:01.842Z,3.57
2017-12-14T23:33:02.647Z,3.17
2017-12-14T23:38:03.458Z,3.07
2017-12-14T23:48:40.425Z,3.23
2017-12-14T23:53:41.212Z,2.80
2017-12-14T23:59:03.590Z,2.73
